sensor_id;sensor_type;location;lat;lon;timestamp;pressure;altitude;pressure_sealevel;temperature;humidity
75538;BME280;64121;48.666;8.114;2023-07-02T00:02:16;99497.81;;;17.34;100.00
75538;BME280;64121;48.666;8.114;2023-07-02T00:04:42;99487.38;;;17.35;100.00
75538;BME280;64121;48.666;8.114;2023-07-02T00:07:07;99489.38;;;17.34;100.00
75538;BME280;64121;48.666;8.114;2023-07-02T00:09:32;99494.19;;;17.34;100.00
75538;BME280;64121;48.666;8.114;2023-07-02T00:11:57;99489.00;;;17.25;100.00
75538;BME280;64121;48.666;8.114;2023-07-02T00:14:23;99488.19;;;17.24;100.00
75538;BME280;64121;48.666;8.114;2023-07-02T00:16:48;99495.84;;;17.20;100.00
75538;BME280;64121;48.666;8.114;2023-07-02T00:19:15;99487.81;;;17.15;100.00
75538;BME280;64121;48.666;8.114;2023-07-02T00:21:41;99492.63;;;17.08;100.00
75538;BME280;64121;48.666;8.114;2023-07-02T00:24:06;99492.25;;;17.06;100.00
75538;BME280;64121;48.666;8.114;2023-07-02T00:26:32;99497.47;;;17.07;100.00
75538;BME280;64121;48.666;8.114;2023-07-02T00:28:57;99503.47;;;17.09;100.00
75538;BME280;64121;48.666;8.114;2023-07-02T00:31:23;99502.66;;;17.19;100.00
75538;BME280;64121;48.666;8.114;2023-07-02T00:33:49;99500.25;;;17.21;100.00
75538;BME280;64121;48.666;8.114;2023-07-02T00:36:16;99495.03;;;17.20;100.00
75538;BME280;64121;48.666;8.114;2023-07-02T00:38:42;99491.78;;;17.25;100.00
75538;BME280;64121;48.666;8.114;2023-07-02T00:41:07;99498.63;;;17.24;100.00
75538;BME280;64121;48.666;8.114;2023-07-02T00:43:33;99490.97;;;17.28;100.00
75538;BME280;64121;48.666;8.114;2023-07-02T00:45:58;99493.41;;;17.26;100.00
75538;BME280;64121;48.666;8.114;2023-07-02T00:48:23;99491.41;;;17.30;100.00
75538;BME280;64121;48.666;8.114;2023-07-02T00:50:49;99490.59;;;17.22;100.00
75538;BME280;64121;48.666;8.114;2023-07-02T00:53:16;99493.41;;;17.22;100.00
75538;BME280;64121;48.666;8.114;2023-07-02T00:55:41;99484.59;;;17.20;100.00
75538;BME280;64121;48.666;8.114;2023-07-02T00:58:07;99486.63;;;17.16;100.00
75538;BME280;64121;48.666;8.114;2023-07-02T01:00:32;99484.22;;;17.15;100.00
75538;BME280;64121;48.666;8.114;2023-07-02T01:02:57;99481.41;;;17.11;100.00
75538;BME280;64121;48.666;8.114;2023-07-02T01:05:23;99490.25;;;17.06;100.00
75538;BME280;64121;48.666;8.114;2023-07-02T01:07:48;99494.25;;;17.05;100.00
75538;BME280;64121;48.666;8.114;2023-07-02T01:10:15;99495.47;;;17.04;100.00
75538;BME280;64121;48.666;8.114;2023-07-02T01:12:41;99499.47;;;17.07;100.00
75538;BME280;64121;48.666;8.114;2023-07-02T01:15:07;99489.03;;;17.11;100.00
75538;BME280;64121;48.666;8.114;2023-07-02T01:17:34;99485.41;;;17.17;100.00
75538;BME280;64121;48.666;8.114;2023-07-02T01:20:01;99486.63;;;17.16;100.00
75538;BME280;64121;48.666;8.114;2023-07-02T01:22:28;99495.03;;;17.20;100.00
75538;BME280;64121;48.666;8.114;2023-07-02T01:24:54;99493.41;;;17.22;100.00
75538;BME280;64121;48.666;8.114;2023-07-02T01:27:20;99500.69;;;17.13;100.00
75538;BME280;64121;48.666;8.114;2023-07-02T01:29:46;99501.88;;;17.12;100.00
75538;BME280;64121;48.666;8.114;2023-07-02T01:32:13;99503.91;;;17.11;100.00
75538;BME280;64121;48.666;8.114;2023-07-02T01:34:39;99510.25;;;17.37;94.81
75538;BME280;64121;48.666;8.114;2023-07-02T01:37:06;99517.09;;;17.32;96.17
75538;BME280;64121;48.666;8.114;2023-07-02T01:39:31;99521.53;;;17.22;96.51
75538;BME280;64121;48.666;8.114;2023-07-02T01:42:08;99521.97;;;17.14;95.21
75538;BME280;64121;48.666;8.114;2023-07-02T01:44:33;99527.19;;;17.08;95.73
75538;BME280;64121;48.666;8.114;2023-07-02T01:46:59;99519.56;;;17.12;95.38
75538;BME280;64121;48.666;8.114;2023-07-02T01:49:24;99522.78;;;16.86;94.95
75538;BME280;64121;48.666;8.114;2023-07-02T01:51:50;99529.63;;;16.78;93.95
75538;BME280;64121;48.666;8.114;2023-07-02T01:54:17;99538.44;;;16.87;92.82
75538;BME280;64121;48.666;8.114;2023-07-02T01:56:42;99542.84;;;16.70;95.01
75538;BME280;64121;48.666;8.114;2023-07-02T01:59:08;99548.06;;;16.68;95.60
75538;BME280;64121;48.666;8.114;2023-07-02T02:01:33;99549.66;;;16.55;96.70
75538;BME280;64121;48.666;8.114;2023-07-02T02:03:58;99553.25;;;16.52;96.20
75538;BME280;64121;48.666;8.114;2023-07-02T02:06:24;99558.47;;;16.46;95.12
75538;BME280;64121;48.666;8.114;2023-07-02T02:08:49;99562.88;;;16.40;95.49
75538;BME280;64121;48.666;8.114;2023-07-02T02:11:16;99569.28;;;16.37;95.29
75538;BME280;64121;48.666;8.114;2023-07-02T02:13:41;99579.28;;;16.24;94.70
75538;BME280;64121;48.666;8.114;2023-07-02T02:16:07;99577.66;;;16.19;93.62
75538;BME280;64121;48.666;8.114;2023-07-02T02:18:32;99588.88;;;16.16;96.08
75538;BME280;64121;48.666;8.114;2023-07-02T02:20:57;99587.66;;;16.17;95.09
75538;BME280;64121;48.666;8.114;2023-07-02T02:23:23;99580.47;;;16.19;93.66
75538;BME280;64121;48.666;8.114;2023-07-02T02:25:48;99584.84;;;16.13;95.49
75538;BME280;64121;48.666;8.114;2023-07-02T02:28:15;99589.25;;;16.11;96.43
75538;BME280;64121;48.666;8.114;2023-07-02T02:30:40;99588.47;;;16.14;97.29
75538;BME280;64121;48.666;8.114;2023-07-02T02:33:05;99590.84;;;16.04;96.82
75538;BME280;64121;48.666;8.114;2023-07-02T02:35:31;99589.19;;;15.96;97.22
75538;BME280;64121;48.666;8.114;2023-07-02T02:37:56;99586.44;;;16.03;97.62
75538;BME280;64121;48.666;8.114;2023-07-02T02:40:21;99585.22;;;16.01;97.62
75538;BME280;64121;48.666;8.114;2023-07-02T02:42:47;99591.25;;;16.03;97.31
75538;BME280;64121;48.666;8.114;2023-07-02T02:45:14;99587.19;;;15.97;98.16
75538;BME280;64121;48.666;8.114;2023-07-02T02:47:39;99592.84;;;16.00;96.41
75538;BME280;64121;48.666;8.114;2023-07-02T02:50:06;99595.66;;;16.00;97.33
75538;BME280;64121;48.666;8.114;2023-07-02T02:52:31;99580.78;;;15.96;97.86
75538;BME280;64121;48.666;8.114;2023-07-02T02:54:57;99581.97;;;15.92;96.09
75538;BME280;64121;48.666;8.114;2023-07-02T02:57:22;99571.13;;;15.90;97.77
75538;BME280;64121;48.666;8.114;2023-07-02T02:59:47;99583.94;;;15.81;98.13
75538;BME280;64121;48.666;8.114;2023-07-02T03:02:14;99573.13;;;15.83;99.74
75538;BME280;64121;48.666;8.114;2023-07-02T03:04:39;99585.56;;;15.92;98.87
75538;BME280;64121;48.666;8.114;2023-07-02T03:07:05;99585.56;;;15.89;98.67
75538;BME280;64121;48.666;8.114;2023-07-02T03:09:30;99591.59;;;15.94;98.21
75538;BME280;64121;48.666;8.114;2023-07-02T03:11:56;99579.50;;;15.80;97.38
75538;BME280;64121;48.666;8.114;2023-07-02T03:14:21;99589.56;;;15.81;97.10
75538;BME280;64121;48.666;8.114;2023-07-02T03:16:46;99577.94;;;15.82;97.67
75538;BME280;64121;48.666;8.114;2023-07-02T03:19:13;99575.06;;;15.71;98.83
75538;BME280;64121;48.666;8.114;2023-07-02T03:21:38;99581.47;;;15.72;98.83
75538;BME280;64121;48.666;8.114;2023-07-02T03:24:04;99577.88;;;15.71;97.58
75538;BME280;64121;48.666;8.114;2023-07-02T03:26:29;99579.94;;;15.82;95.66
75538;BME280;64121;48.666;8.114;2023-07-02T03:28:55;99582.28;;;15.72;94.61
75538;BME280;64121;48.666;8.114;2023-07-02T03:31:20;99585.50;;;15.74;94.68
75538;BME280;64121;48.666;8.114;2023-07-02T03:33:45;99588.28;;;15.71;94.83
75538;BME280;64121;48.666;8.114;2023-07-02T03:36:12;99582.69;;;15.74;95.19
75538;BME280;64121;48.666;8.114;2023-07-02T03:38:37;99595.09;;;15.70;96.22
75538;BME280;64121;48.666;8.114;2023-07-02T03:41:03;99602.31;;;15.67;96.37
75538;BME280;64121;48.666;8.114;2023-07-02T03:43:28;99601.09;;;15.65;95.24
75538;BME280;64121;48.666;8.114;2023-07-02T03:45:53;99601.53;;;15.74;95.24
75538;BME280;64121;48.666;8.114;2023-07-02T03:48:19;99613.56;;;15.74;95.37
75538;BME280;64121;48.666;8.114;2023-07-02T03:50:44;99610.31;;;15.69;95.99
75538;BME280;64121;48.666;8.114;2023-07-02T03:53:11;99609.94;;;15.70;95.27
75538;BME280;64121;48.666;8.114;2023-07-02T03:55:36;99618.75;;;15.72;93.23
75538;BME280;64121;48.666;8.114;2023-07-02T03:58:01;99621.16;;;15.74;93.99
75538;BME280;64121;48.666;8.114;2023-07-02T04:00:27;99617.97;;;15.79;94.70
75538;BME280;64121;48.666;8.114;2023-07-02T04:02:52;99621.22;;;15.81;95.29
75538;BME280;64121;48.666;8.114;2023-07-02T04:05:18;99619.22;;;15.82;95.56
75538;BME280;64121;48.666;8.114;2023-07-02T04:07:43;99619.63;;;15.84;96.16
75538;BME280;64121;48.666;8.114;2023-07-02T04:10:10;99629.66;;;15.85;93.74
75538;BME280;64121;48.666;8.114;2023-07-02T04:12:35;99628.84;;;15.84;95.02
75538;BME280;64121;48.666;8.114;2023-07-02T04:15:00;99637.28;;;15.88;96.49
75538;BME280;64121;48.666;8.114;2023-07-02T04:17:26;99633.28;;;15.89;95.97
75538;BME280;64121;48.666;8.114;2023-07-02T04:19:54;99634.88;;;15.90;95.44
75538;BME280;64121;48.666;8.114;2023-07-02T04:22:20;99646.50;;;15.95;96.79
75538;BME280;64121;48.666;8.114;2023-07-02T04:24:45;99644.91;;;15.94;94.01
75538;BME280;64121;48.666;8.114;2023-07-02T04:27:12;99649.34;;;15.99;92.99
75538;BME280;64121;48.666;8.114;2023-07-02T04:29:37;99649.72;;;15.97;92.35
75538;BME280;64121;48.666;8.114;2023-07-02T04:32:03;99658.59;;;15.99;93.56
75538;BME280;64121;48.666;8.114;2023-07-02T04:34:28;99652.19;;;16.06;91.99
75538;BME280;64121;48.666;8.114;2023-07-02T04:36:54;99657.41;;;16.08;91.68
75538;BME280;64121;48.666;8.114;2023-07-02T04:39:19;99660.22;;;16.11;90.55
75538;BME280;64121;48.666;8.114;2023-07-02T04:41:44;99651.47;;;16.20;91.86
75538;BME280;64121;48.666;8.114;2023-07-02T04:44:11;99654.28;;;16.27;92.33
75538;BME280;64121;48.666;8.114;2023-07-02T04:46:36;99654.28;;;16.30;91.64
75538;BME280;64121;48.666;8.114;2023-07-02T04:49:02;99655.50;;;16.33;92.00
75538;BME280;64121;48.666;8.114;2023-07-02T04:51:27;99654.69;;;16.29;89.72
75538;BME280;64121;48.666;8.114;2023-07-02T04:53:52;99659.16;;;16.44;89.56
75538;BME280;64121;48.666;8.114;2023-07-02T04:56:18;99652.75;;;16.47;88.71
75538;BME280;64121;48.666;8.114;2023-07-02T04:58:43;99656.81;;;16.60;89.14
75538;BME280;64121;48.666;8.114;2023-07-02T05:01:10;99658.03;;;16.67;88.09
75538;BME280;64121;48.666;8.114;2023-07-02T05:03:37;99665.31;;;16.75;89.74
75538;BME280;64121;48.666;8.114;2023-07-02T05:06:02;99657.28;;;16.84;87.81
75538;BME280;64121;48.666;8.114;2023-07-02T05:08:27;99666.50;;;16.88;86.35
75538;BME280;64121;48.666;8.114;2023-07-02T05:10:53;99677.38;;;16.93;84.18
75538;BME280;64121;48.666;8.114;2023-07-02T05:13:18;99681.00;;;17.04;85.99
75538;BME280;64121;48.666;8.114;2023-07-02T05:15:44;99678.56;;;17.06;87.48
75538;BME280;64121;48.666;8.114;2023-07-02T05:18:10;99686.22;;;17.09;87.72
75538;BME280;64121;48.666;8.114;2023-07-02T05:20:36;99690.63;;;17.03;86.58
75538;BME280;64121;48.666;8.114;2023-07-02T05:23:01;99688.63;;;16.93;85.84
75538;BME280;64121;48.666;8.114;2023-07-02T05:25:26;99692.22;;;16.97;86.51
75538;BME280;64121;48.666;8.114;2023-07-02T05:27:51;99694.63;;;16.88;86.22
75538;BME280;64121;48.666;8.114;2023-07-02T05:30:17;99698.25;;;16.99;86.22
75538;BME280;64121;48.666;8.114;2023-07-02T05:32:42;99701.47;;;17.08;86.80
75538;BME280;64121;48.666;8.114;2023-07-02T05:35:09;99703.91;;;17.17;85.34
75538;BME280;64121;48.666;8.114;2023-07-02T05:37:34;99703.88;;;17.10;86.08
75538;BME280;64121;48.666;8.114;2023-07-02T05:40:00;99695.88;;;17.19;85.96
75538;BME280;64121;48.666;8.114;2023-07-02T05:42:25;99699.06;;;17.28;86.02
75538;BME280;64121;48.666;8.114;2023-07-02T05:44:50;99698.69;;;17.33;85.67
75538;BME280;64121;48.666;8.114;2023-07-02T05:47:16;99700.31;;;17.34;86.99
75538;BME280;64121;48.666;8.114;2023-07-02T05:49:41;99704.31;;;17.44;88.65
75538;BME280;64121;48.666;8.114;2023-07-02T05:52:08;99697.50;;;17.34;87.82
75538;BME280;64121;48.666;8.114;2023-07-02T05:54:33;99708.31;;;17.39;85.29
75538;BME280;64121;48.666;8.114;2023-07-02T05:56:58;99707.53;;;17.35;84.53
75538;BME280;64121;48.666;8.114;2023-07-02T05:59:24;99710.75;;;17.51;84.61
75538;BME280;64121;48.666;8.114;2023-07-02T06:01:49;99707.50;;;17.64;85.29
75538;BME280;64121;48.666;8.114;2023-07-02T06:04:14;99715.59;;;17.69;83.85
75538;BME280;64121;48.666;8.114;2023-07-02T06:06:40;99718.78;;;17.74;83.11
75538;BME280;64121;48.666;8.114;2023-07-02T06:09:06;99716.78;;;17.78;81.28
75538;BME280;64121;48.666;8.114;2023-07-02T06:11:32;99716.38;;;17.80;84.30
75538;BME280;64121;48.666;8.114;2023-07-02T06:13:57;99719.59;;;17.85;83.14
75538;BME280;64121;48.666;8.114;2023-07-02T06:16:23;99730.00;;;18.06;83.17
75538;BME280;64121;48.666;8.114;2023-07-02T06:18:48;99733.59;;;18.25;82.79
75538;BME280;64121;48.666;8.114;2023-07-02T06:21:13;99739.19;;;18.32;81.37
75538;BME280;64121;48.666;8.114;2023-07-02T06:23:40;99733.53;;;18.35;80.23
75538;BME280;64121;48.666;8.114;2023-07-02T06:26:07;99727.06;;;18.45;77.95
75538;BME280;64121;48.666;8.114;2023-07-02T06:28:32;99740.59;;;18.86;75.49
75538;BME280;64121;48.666;8.114;2023-07-02T06:30:57;99738.84;;;19.10;76.76
75538;BME280;64121;48.666;8.114;2023-07-02T06:33:23;99738.25;;;19.36;77.67
75538;BME280;64121;48.666;8.114;2023-07-02T06:35:49;99736.88;;;19.62;74.02
75538;BME280;64121;48.666;8.114;2023-07-02T06:38:14;99739.28;;;20.05;71.75
75538;BME280;64121;48.666;8.114;2023-07-02T06:40:39;99738.06;;;20.47;71.77
75538;BME280;64121;48.666;8.114;2023-07-02T06:43:06;99731.41;;;20.27;69.99
75538;BME280;64121;48.666;8.114;2023-07-02T06:45:32;99739.84;;;20.31;70.16
75538;BME280;64121;48.666;8.114;2023-07-02T06:47:57;99742.56;;;20.00;70.64
75538;BME280;64121;48.666;8.114;2023-07-02T06:50:22;99750.69;;;19.94;71.58
75538;BME280;64121;48.666;8.114;2023-07-02T06:52:48;99750.66;;;19.98;72.21
75538;BME280;64121;48.666;8.114;2023-07-02T06:55:13;99740.06;;;20.09;69.24
75538;BME280;64121;48.666;8.114;2023-07-02T06:57:42;99739.72;;;20.41;71.41
75538;BME280;64121;48.666;8.114;2023-07-02T07:00:10;99742.06;;;20.50;68.05
75538;BME280;64121;48.666;8.114;2023-07-02T07:02:35;99745.97;;;20.60;64.32
75538;BME280;64121;48.666;8.114;2023-07-02T07:05:00;99738.19;;;19.95;65.36
75538;BME280;64121;48.666;8.114;2023-07-02T07:07:26;99751.34;;;20.50;63.28
75538;BME280;64121;48.666;8.114;2023-07-02T07:09:51;99748.66;;;21.01;58.98
75538;BME280;64121;48.666;8.114;2023-07-02T07:12:16;99756.34;;;21.31;60.94
75538;BME280;64121;48.666;8.114;2023-07-02T07:14:42;99757.00;;;21.11;59.31
75538;BME280;64121;48.666;8.114;2023-07-02T07:17:09;99753.94;;;20.99;57.87
75538;BME280;64121;48.666;8.114;2023-07-02T07:19:34;99752.00;;;21.23;57.21
75538;BME280;64121;48.666;8.114;2023-07-02T07:22:00;99750.06;;;21.16;58.77
75538;BME280;64121;48.666;8.114;2023-07-02T07:24:25;99750.56;;;21.65;55.97
75538;BME280;64121;48.666;8.114;2023-07-02T07:26:50;99740.59;;;20.99;59.21
75538;BME280;64121;48.666;8.114;2023-07-02T07:29:16;99750.06;;;21.16;58.26
75538;BME280;64121;48.666;8.114;2023-07-02T07:31:41;99743.78;;;20.74;60.33
75538;BME280;64121;48.666;8.114;2023-07-02T07:34:08;99743.03;;;20.97;58.03
75538;BME280;64121;48.666;8.114;2023-07-02T07:36:33;99737.63;;;21.64;56.67
75538;BME280;64121;48.666;8.114;2023-07-02T07:38:59;99739.28;;;21.85;56.14
75538;BME280;64121;48.666;8.114;2023-07-02T07:41:24;99740.09;;;21.85;56.78
75538;BME280;64121;48.666;8.114;2023-07-02T07:43:49;99733.81;;;21.97;55.24
75538;BME280;64121;48.666;8.114;2023-07-02T07:46:15;99744.06;;;22.34;53.47
75538;BME280;64121;48.666;8.114;2023-07-02T07:48:40;99741.25;;;22.11;55.52
75538;BME280;64121;48.666;8.114;2023-07-02T07:51:07;99733.44;;;21.72;55.53
75538;BME280;64121;48.666;8.114;2023-07-02T07:53:32;99737.63;;;22.11;53.85
75538;BME280;64121;48.666;8.114;2023-07-02T07:55:57;99728.34;;;22.50;56.02
75538;BME280;64121;48.666;8.114;2023-07-02T07:58:23;99725.66;;;22.43;55.77
75538;BME280;64121;48.666;8.114;2023-07-02T08:00:48;99734.09;;;22.26;56.04
75538;BME280;64121;48.666;8.114;2023-07-02T08:03:13;99727.72;;;21.75;56.46
75538;BME280;64121;48.666;8.114;2023-07-02T08:05:39;99731.25;;;22.26;56.62
75538;BME280;64121;48.666;8.114;2023-07-02T08:08:06;99721.28;;;22.18;59.96
75538;BME280;64121;48.666;8.114;2023-07-02T08:10:31;99731.78;;;22.41;56.25
75538;BME280;64121;48.666;8.114;2023-07-02T08:12:56;99731.16;;;22.30;58.84
75538;BME280;64121;48.666;8.114;2023-07-02T08:15:22;99720.88;;;21.96;59.39
75538;BME280;64121;48.666;8.114;2023-07-02T08:17:47;99723.81;;;21.66;57.84
75538;BME280;64121;48.666;8.114;2023-07-02T08:20:12;99717.59;;;21.28;58.21
75538;BME280;64121;48.666;8.114;2023-07-02T08:22:39;99719.53;;;21.31;57.91
75538;BME280;64121;48.666;8.114;2023-07-02T08:25:06;99716.69;;;21.58;57.83
75538;BME280;64121;48.666;8.114;2023-07-02T08:27:32;99727.44;;;21.43;58.85
75538;BME280;64121;48.666;8.114;2023-07-02T08:29:57;99718.94;;;21.16;61.12
75538;BME280;64121;48.666;8.114;2023-07-02T08:32:23;99723.84;;;21.12;58.21
75538;BME280;64121;48.666;8.114;2023-07-02T08:34:48;99726.50;;;21.26;57.57
75538;BME280;64121;48.666;8.114;2023-07-02T08:37:14;99727.78;;;21.95;56.26
75538;BME280;64121;48.666;8.114;2023-07-02T08:39:39;99726.97;;;22.58;53.51
75538;BME280;64121;48.666;8.114;2023-07-02T08:42:06;99722.69;;;22.89;51.89
75538;BME280;64121;48.666;8.114;2023-07-02T08:44:32;99727.16;;;23.23;50.40
75538;BME280;64121;48.666;8.114;2023-07-02T08:46:58;99731.47;;;22.95;48.13
75538;BME280;64121;48.666;8.114;2023-07-02T08:49:23;99728.38;;;22.89;49.42
75538;BME280;64121;48.666;8.114;2023-07-02T08:51:49;99731.91;;;22.14;51.22
75538;BME280;64121;48.666;8.114;2023-07-02T08:54:17;99721.22;;;21.75;53.37
75538;BME280;64121;48.666;8.114;2023-07-02T08:56:44;99741.75;;;22.69;52.06
75538;BME280;64121;48.666;8.114;2023-07-02T08:59:11;99736.00;;;23.45;50.69
75538;BME280;64121;48.666;8.114;2023-07-02T09:01:44;99731.59;;;23.24;51.55
75538;BME280;64121;48.666;8.114;2023-07-02T09:04:15;99731.22;;;23.58;51.31
75538;BME280;64121;48.666;8.114;2023-07-02T09:08:22;99718.25;;;22.88;52.18
75538;BME280;64121;48.666;8.114;2023-07-02T09:10:48;99709.09;;;23.33;49.11
75538;BME280;64121;48.666;8.114;2023-07-02T09:13:19;99721.28;;;23.99;47.82
75538;BME280;64121;48.666;8.114;2023-07-02T09:15:47;99730.72;;;23.63;47.30
75538;BME280;64121;48.666;8.114;2023-07-02T09:18:17;99692.84;;;23.34;49.16
75538;BME280;64121;48.666;8.114;2023-07-02T09:20:46;99712.13;;;22.90;49.95
75538;BME280;64121;48.666;8.114;2023-07-02T09:23:40;99705.75;;;23.02;50.04
75538;BME280;64121;48.666;8.114;2023-07-02T09:26:18;99731.16;;;23.62;48.44
75538;BME280;64121;48.666;8.114;2023-07-02T09:28:44;99707.09;;;23.66;46.05
75538;BME280;64121;48.666;8.114;2023-07-02T09:31:09;99701.66;;;23.72;44.46
75538;BME280;64121;48.666;8.114;2023-07-02T09:33:35;99710.31;;;23.97;45.13
75538;BME280;64121;48.666;8.114;2023-07-02T09:36:00;99691.78;;;23.93;45.62
75538;BME280;64121;48.666;8.114;2023-07-02T09:38:28;99683.28;;;24.22;44.45
75538;BME280;64121;48.666;8.114;2023-07-02T09:40:53;99720.50;;;24.56;45.65
75538;BME280;64121;48.666;8.114;2023-07-02T09:43:19;99725.47;;;23.62;46.56
75538;BME280;64121;48.666;8.114;2023-07-02T09:45:46;99708.09;;;24.05;47.20
75538;BME280;64121;48.666;8.114;2023-07-02T09:48:16;99683.94;;;23.97;45.11
75538;BME280;64121;48.666;8.114;2023-07-02T09:50:42;99703.84;;;23.97;44.95
75538;BME280;64121;48.666;8.114;2023-07-02T09:53:08;99712.06;;;24.24;42.39
75538;BME280;64121;48.666;8.114;2023-07-02T09:55:35;99699.63;;;24.46;44.10
75538;BME280;64121;48.666;8.114;2023-07-02T09:58:01;99704.34;;;24.66;43.57
75538;BME280;64121;48.666;8.114;2023-07-02T10:00:29;99713.00;;;25.29;42.06
75538;BME280;64121;48.666;8.114;2023-07-02T10:02:55;99706.38;;;25.20;40.44
75538;BME280;64121;48.666;8.114;2023-07-02T10:05:25;99697.47;;;25.56;39.62
75538;BME280;64121;48.666;8.114;2023-07-02T10:07:57;99703.06;;;25.72;41.47
75538;BME280;64121;48.666;8.114;2023-07-02T10:10:28;99712.06;;;25.71;39.56
75538;BME280;64121;48.666;8.114;2023-07-02T10:12:55;99696.22;;;25.57;38.69
75538;BME280;64121;48.666;8.114;2023-07-02T10:15:35;99715.44;;;25.91;39.64
75538;BME280;64121;48.666;8.114;2023-07-02T10:18:10;99693.50;;;25.41;38.59
75538;BME280;64121;48.666;8.114;2023-07-02T10:20:37;99725.72;;;25.88;38.50
75538;BME280;64121;48.666;8.114;2023-07-02T10:23:03;99701.38;;;25.24;37.62
75538;BME280;64121;48.666;8.114;2023-07-02T10:25:32;99713.97;;;24.97;39.60
75538;BME280;64121;48.666;8.114;2023-07-02T10:27:59;99690.66;;;25.15;39.79
75538;BME280;64121;48.666;8.114;2023-07-02T10:30:32;99710.34;;;25.10;37.64
75538;BME280;64121;48.666;8.114;2023-07-02T10:33:08;99690.09;;;25.20;37.41
75538;BME280;64121;48.666;8.114;2023-07-02T10:35:33;99690.50;;;25.57;38.87
75538;BME280;64121;48.666;8.114;2023-07-02T10:37:59;99703.75;;;25.25;38.64
75538;BME280;64121;48.666;8.114;2023-07-02T10:40:33;99697.63;;;24.72;39.26
75538;BME280;64121;48.666;8.114;2023-07-02T10:43:03;99694.50;;;24.41;39.30
75538;BME280;64121;48.666;8.114;2023-07-02T10:45:32;99703.22;;;24.63;38.14
75538;BME280;64121;48.666;8.114;2023-07-02T10:47:58;99717.44;;;25.18;39.27
75538;BME280;64121;48.666;8.114;2023-07-02T10:50:23;99703.16;;;25.43;37.58
75538;BME280;64121;48.666;8.114;2023-07-02T10:52:51;99715.38;;;25.31;38.47
75538;BME280;64121;48.666;8.114;2023-07-02T10:55:17;99693.44;;;25.91;37.72
75538;BME280;64121;48.666;8.114;2023-07-02T10:57:48;99706.16;;;26.00;38.79
75538;BME280;64121;48.666;8.114;2023-07-02T11:00:16;99701.69;;;25.39;37.82
75538;BME280;64121;48.666;8.114;2023-07-02T11:02:42;99706.00;;;24.92;38.09
75538;BME280;64121;48.666;8.114;2023-07-02T11:05:14;99696.38;;;24.61;39.90
75538;BME280;64121;48.666;8.114;2023-07-02T11:07:43;99684.97;;;24.48;38.73
75538;BME280;64121;48.666;8.114;2023-07-02T11:10:09;99699.19;;;25.28;39.94
75538;BME280;64121;48.666;8.114;2023-07-02T11:12:35;99702.28;;;25.21;38.43
75538;BME280;64121;48.666;8.114;2023-07-02T11:15:07;99696.97;;;24.68;38.91
75538;BME280;64121;48.666;8.114;2023-07-02T11:17:46;99694.66;;;25.30;39.79
75538;BME280;64121;48.666;8.114;2023-07-02T11:20:13;99688.16;;;26.24;38.21
75538;BME280;64121;48.666;8.114;2023-07-02T11:22:42;99707.19;;;26.62;36.44
75538;BME280;64121;48.666;8.114;2023-07-02T11:25:16;99691.75;;;26.38;35.64
75538;BME280;64121;48.666;8.114;2023-07-02T11:27:41;99684.50;;;26.90;36.13
75538;BME280;64121;48.666;8.114;2023-07-02T11:30:08;99688.25;;;26.55;36.80
75538;BME280;64121;48.666;8.114;2023-07-02T11:32:46;99692.50;;;26.51;35.03
75538;BME280;64121;48.666;8.114;2023-07-02T11:35:11;99668.16;;;26.59;36.00
75538;BME280;64121;48.666;8.114;2023-07-02T11:37:37;99678.19;;;25.73;35.75
75538;BME280;64121;48.666;8.114;2023-07-02T11:40:03;99665.78;;;26.01;35.45
75538;BME280;64121;48.666;8.114;2023-07-02T11:42:29;99684.72;;;26.73;35.24
75538;BME280;64121;48.666;8.114;2023-07-02T11:44:55;99669.84;;;26.56;33.45
75538;BME280;64121;48.666;8.114;2023-07-02T11:47:23;99676.19;;;25.35;35.80
75538;BME280;64121;48.666;8.114;2023-07-02T11:49:49;99686.88;;;25.56;35.24
75538;BME280;64121;48.666;8.114;2023-07-02T11:52:15;99683.19;;;25.81;35.24
75538;BME280;64121;48.666;8.114;2023-07-02T11:54:40;99671.88;;;26.47;35.47
75538;BME280;64121;48.666;8.114;2023-07-02T11:57:06;99665.88;;;26.10;34.44
75538;BME280;64121;48.666;8.114;2023-07-02T11:59:31;99680.09;;;26.45;34.85
75538;BME280;64121;48.666;8.114;2023-07-02T12:01:57;99648.75;;;26.10;35.95
75538;BME280;64121;48.666;8.114;2023-07-02T12:04:22;99652.38;;;25.89;36.42
75538;BME280;64121;48.666;8.114;2023-07-02T12:06:49;99639.94;;;26.39;34.74
75538;BME280;64121;48.666;8.114;2023-07-02T12:09:14;99656.66;;;25.72;35.52
75538;BME280;64121;48.666;8.114;2023-07-02T12:11:40;99667.72;;;26.04;34.25
75538;BME280;64121;48.666;8.114;2023-07-02T12:14:18;99631.00;;;26.06;34.64
75538;BME280;64121;48.666;8.114;2023-07-02T12:16:49;99660.03;;;25.79;36.17
75538;BME280;64121;48.666;8.114;2023-07-02T12:19:15;99657.00;;;25.74;36.69
75538;BME280;64121;48.666;8.114;2023-07-02T12:21:40;99636.56;;;26.10;34.80
75538;BME280;64121;48.666;8.114;2023-07-02T12:24:07;99632.78;;;26.13;35.85
75538;BME280;64121;48.666;8.114;2023-07-02T12:26:32;99655.06;;;26.05;35.93
75538;BME280;64121;48.666;8.114;2023-07-02T12:28:58;99642.56;;;25.90;35.64
75538;BME280;64121;48.666;8.114;2023-07-02T12:31:23;99660.31;;;25.72;35.80
75538;BME280;64121;48.666;8.114;2023-07-02T12:33:48;99646.31;;;25.40;35.82
75538;BME280;64121;48.666;8.114;2023-07-02T12:36:14;99638.63;;;25.62;36.12
75538;BME280;64121;48.666;8.114;2023-07-02T12:38:39;99634.50;;;25.16;35.85
75538;BME280;64121;48.666;8.114;2023-07-02T12:41:06;99644.88;;;25.22;37.52
75538;BME280;64121;48.666;8.114;2023-07-02T12:43:31;99645.72;;;25.57;37.09
75538;BME280;64121;48.666;8.114;2023-07-02T12:45:57;99629.66;;;25.51;36.58
75538;BME280;64121;48.666;8.114;2023-07-02T12:48:22;99636.13;;;25.77;35.35
75538;BME280;64121;48.666;8.114;2023-07-02T12:50:54;99635.41;;;25.85;35.66
75538;BME280;64121;48.666;8.114;2023-07-02T12:53:20;99623.84;;;25.54;36.81
75538;BME280;64121;48.666;8.114;2023-07-02T12:55:45;99629.72;;;25.85;36.58
75538;BME280;64121;48.666;8.114;2023-07-02T12:58:12;99642.09;;;25.91;35.21